MSC Chiara — H3RT — position and weather

sailwx.info

Track history (hours):
 
Tides and Currents Weather Stations Pressure Air Temp Water Temp Dewpoint Dewpoint Depression Visibility Wind Speed Wind Dir Waves Ship Positions

MSC Chiara

Last reported at 2014-Aug-22 00:31 UTC. Time now 2014-Aug-29 22:27 UTC.
Position S 28°56' E 032°14'.

Length 197 m; draft 11.9 m.

Type: Ship (hazmat cat A). MMSI: 352398000.

Date/timePositionNaut miles runAvg speedWind from/ knotsBaromVisibWave heightAir tempDewpointWater temp
2014-Aug-22 00:31S 28°56' E 032°14'5512.7
2014-Aug-21 20:12S 29°36' E 031°31'913.3
2014-Aug-21 19:33S 29°42' E 031°24'1612.5
2014-Aug-21 18:14S 29°50' E 031°08'6 0.8
2014-Aug-21 10:24S 29°53' E 031°01'0 0.0
2014-Aug-20 21:18S 29°53' E 031°01'0 0.0
2014-Aug-20 17:33S 29°53' E 031°01'0 0.0
2014-Aug-20 14:17S 29°53' E 031°01'0 0.0
2014-Aug-20 04:32S 29°53' E 031°01'0 0.0
2014-Aug-20 03:16S 29°53' E 031°01'0 0.0
2014-Aug-20 02:31S 29°53' E 031°01'0 0.0
2014-Aug-20 01:15S 29°53' E 031°01'0 0.0
2014-Aug-20 00:18S 29°53' E 031°01'0 0.0
2014-Aug-19 23:24S 29°53' E 031°01'0 0.0
2014-Aug-19 20:27S 29°53' E 031°01'0 0.0
2014-Aug-19 14:27S 29°53' E 031°01'0 0.0
2014-Aug-19 13:13S 29°53' E 031°01'0 0.0
2014-Aug-19 12:31S 29°53' E 031°01'0 0.0
2014-Aug-19 11:24S 29°53' E 031°01'0 0.0
2014-Aug-19 10:21S 29°53' E 031°01'0 0.0
2014-Aug-19 09:25S 29°53' E 031°01'0 0.0
2014-Aug-19 06:31S 29°53' E 031°01'0 0.0
2014-Aug-19 05:30S 29°53' E 031°01'0 0.0
2014-Aug-19 04:27S 29°53' E 031°01'0 0.0
2014-Aug-19 03:29S 29°53' E 031°01'0 0.0
2014-Aug-19 02:14S 29°53' E 031°01'0 0.0
2014-Aug-18 21:29S 29°53' E 031°01'0 0.0
2014-Aug-18 14:16S 29°53' E 031°01'0 0.0
2014-Aug-18 13:33S 29°53' E 031°01'0 0.0
2014-Aug-18 12:32S 29°53' E 031°01'0 0.0
2014-Aug-18 11:28S 29°53' E 031°01'0 0.0
2014-Aug-18 10:32S 29°53' E 031°01'0 0.0
2014-Aug-18 09:33S 29°53' E 031°01'0 0.0
2014-Aug-18 08:31S 29°53' E 031°01'7 0.5
2014-Aug-17 18:33S 29°49' E 031°08'9 8.7
2014-Aug-17 17:33S 29°41' E 031°10'0 0.1
2014-Aug-17 16:33S 29°41' E 031°10'0 0.0
2014-Aug-17 15:33S 29°41' E 031°10'0 0.0
2014-Aug-17 14:32S 29°41' E 031°10'0 0.0
2014-Aug-17 13:33S 29°41' E 031°10'0 0.0
2014-Aug-17 12:33S 29°41' E 031°10'0 0.0
2014-Aug-17 11:33S 29°41' E 031°10'0 0.0
2014-Aug-17 10:32S 29°41' E 031°10'0 0.0
2014-Aug-17 09:33S 29°41' E 031°10'0 0.0
2014-Aug-17 08:33S 29°41' E 031°10'0 0.0
2014-Aug-17 07:32S 29°41' E 031°10'0 0.0
2014-Aug-17 06:33S 29°41' E 031°10'0 0.0
2014-Aug-17 05:27S 29°41' E 031°10'0 0.0
2014-Aug-17 04:33S 29°41' E 031°10'0 0.0
2014-Aug-17 03:32S 29°41' E 031°10'0 0.0
2014-Aug-17 02:29S 29°41' E 031°10'0 0.0
2014-Aug-17 01:32S 29°41' E 031°10'0 0.0
2014-Aug-17 00:33S 29°40' E 031°10'0 0.0
2014-Aug-16 23:31S 29°41' E 031°10'0 0.0
2014-Aug-16 22:33S 29°41' E 031°10'0 0.0
2014-Aug-16 21:30S 29°41' E 031°10'0 0.0
2014-Aug-16 20:32S 29°41' E 031°10'0 0.0
2014-Aug-16 19:33S 29°41' E 031°10'0 0.0
2014-Aug-16 18:33S 29°40' E 031°10'0 0.0
2014-Aug-16 17:32S 29°40' E 031°10'0 0.0
2014-Aug-16 16:33S 29°40' E 031°10'0 0.0
2014-Aug-16 15:32S 29°40' E 031°10'0 0.0
2014-Aug-16 14:30S 29°40' E 031°10'0 0.0
2014-Aug-16 13:24S 29°40' E 031°10'0 0.0
2014-Aug-16 12:31S 29°40' E 031°10'0 0.0
2014-Aug-16 11:33S 29°40' E 031°10'0 0.0
2014-Aug-16 10:33S 29°40' E 031°10'0 0.0
2014-Aug-16 09:33S 29°40' E 031°10'0 0.0
2014-Aug-16 08:33S 29°40' E 031°10'0 0.0
2014-Aug-16 07:33S 29°40' E 031°10'0 0.0
2014-Aug-16 06:32S 29°40' E 031°10'0 0.1
2014-Aug-16 05:33S 29°40' E 031°11'0 0.1
2014-Aug-16 04:32S 29°40' E 031°11'0 0.1
2014-Aug-16 03:33S 29°40' E 031°11'0 0.4
2014-Aug-16 02:33S 29°41' E 031°10'8 7.5
2014-Aug-16 01:33S 29°48' E 031°11'25713.4
2014-Aug-15 06:23S 33°06' E 027°60'4314.3
2014-Aug-15 03:21S 33°32' E 027°18'1615.6
2014-Aug-15 02:21S 33°40' E 027°02'68 6.2
2014-Aug-14 15:29S 33°48' E 025°41'49 1.9
2014-Aug-13 13:18S 33°49' E 026°40'  
Track history (hours):
 
Tides and Currents Weather Stations Pressure Air Temp Water Temp Dewpoint Dewpoint Depression Visibility Wind Speed Wind Dir Waves Ship Positions

MSC Chiara

Last reported at 2014-Aug-22 00:31 UTC. Time now 2014-Aug-29 22:27 UTC.
Position S 28°56' E 032°14'.

Length 197 m; draft 11.9 m.

Type: Ship (hazmat cat A). MMSI: 352398000.

Date/timePositionNaut miles runAvg speedWind from/ knotsBaromVisibWave heightAir tempDewpointWater temp
2014-Aug-22 00:31S 28°56' E 032°14'5512.7
2014-Aug-21 20:12S 29°36' E 031°31'913.3
2014-Aug-21 19:33S 29°42' E 031°24'1612.5
2014-Aug-21 18:14S 29°50' E 031°08'6 0.8
2014-Aug-21 10:24S 29°53' E 031°01'0 0.0
2014-Aug-20 21:18S 29°53' E 031°01'0 0.0
2014-Aug-20 17:33S 29°53' E 031°01'0 0.0
2014-Aug-20 14:17S 29°53' E 031°01'0 0.0
2014-Aug-20 04:32S 29°53' E 031°01'0 0.0
2014-Aug-20 03:16S 29°53' E 031°01'0 0.0
2014-Aug-20 02:31S 29°53' E 031°01'0 0.0
2014-Aug-20 01:15S 29°53' E 031°01'0 0.0
2014-Aug-20 00:18S 29°53' E 031°01'0 0.0
2014-Aug-19 23:24S 29°53' E 031°01'0 0.0
2014-Aug-19 20:27S 29°53' E 031°01'0 0.0
2014-Aug-19 14:27S 29°53' E 031°01'0 0.0
2014-Aug-19 13:13S 29°53' E 031°01'0 0.0
2014-Aug-19 12:31S 29°53' E 031°01'0 0.0
2014-Aug-19 11:24S 29°53' E 031°01'0 0.0
2014-Aug-19 10:21S 29°53' E 031°01'0 0.0
2014-Aug-19 09:25S 29°53' E 031°01'0 0.0
2014-Aug-19 06:31S 29°53' E 031°01'0 0.0
2014-Aug-19 05:30S 29°53' E 031°01'0 0.0
2014-Aug-19 04:27S 29°53' E 031°01'0 0.0
2014-Aug-19 03:29S 29°53' E 031°01'0 0.0
2014-Aug-19 02:14S 29°53' E 031°01'0 0.0
2014-Aug-18 21:29S 29°53' E 031°01'0 0.0
2014-Aug-18 14:16S 29°53' E 031°01'0 0.0
2014-Aug-18 13:33S 29°53' E 031°01'0 0.0
2014-Aug-18 12:32S 29°53' E 031°01'0 0.0
2014-Aug-18 11:28S 29°53' E 031°01'0 0.0
2014-Aug-18 10:32S 29°53' E 031°01'0 0.0
2014-Aug-18 09:33S 29°53' E 031°01'0 0.0
2014-Aug-18 08:31S 29°53' E 031°01'7 0.5
2014-Aug-17 18:33S 29°49' E 031°08'9 8.7
2014-Aug-17 17:33S 29°41' E 031°10'0 0.1
2014-Aug-17 16:33S 29°41' E 031°10'0 0.0
2014-Aug-17 15:33S 29°41' E 031°10'0 0.0
2014-Aug-17 14:32S 29°41' E 031°10'0 0.0
2014-Aug-17 13:33S 29°41' E 031°10'0 0.0
2014-Aug-17 12:33S 29°41' E 031°10'0 0.0
2014-Aug-17 11:33S 29°41' E 031°10'0 0.0
2014-Aug-17 10:32S 29°41' E 031°10'0 0.0
2014-Aug-17 09:33S 29°41' E 031°10'0 0.0
2014-Aug-17 08:33S 29°41' E 031°10'0 0.0
2014-Aug-17 07:32S 29°41' E 031°10'0 0.0
2014-Aug-17 06:33S 29°41' E 031°10'0 0.0
2014-Aug-17 05:27S 29°41' E 031°10'0 0.0
2014-Aug-17 04:33S 29°41' E 031°10'0 0.0
2014-Aug-17 03:32S 29°41' E 031°10'0 0.0
2014-Aug-17 02:29S 29°41' E 031°10'0 0.0
2014-Aug-17 01:32S 29°41' E 031°10'0 0.0
2014-Aug-17 00:33S 29°40' E 031°10'0 0.0
2014-Aug-16 23:31S 29°41' E 031°10'0 0.0
2014-Aug-16 22:33S 29°41' E 031°10'0 0.0
2014-Aug-16 21:30S 29°41' E 031°10'0 0.0
2014-Aug-16 20:32S 29°41' E 031°10'0 0.0
2014-Aug-16 19:33S 29°41' E 031°10'0 0.0
2014-Aug-16 18:33S 29°40' E 031°10'0 0.0
2014-Aug-16 17:32S 29°40' E 031°10'0 0.0
2014-Aug-16 16:33S 29°40' E 031°10'0 0.0
2014-Aug-16 15:32S 29°40' E 031°10'0 0.0
2014-Aug-16 14:30S 29°40' E 031°10'0 0.0
2014-Aug-16 13:24S 29°40' E 031°10'0 0.0
2014-Aug-16 12:31S 29°40' E 031°10'0 0.0
2014-Aug-16 11:33S 29°40' E 031°10'0 0.0
2014-Aug-16 10:33S 29°40' E 031°10'0 0.0
2014-Aug-16 09:33S 29°40' E 031°10'0 0.0
2014-Aug-16 08:33S 29°40' E 031°10'0 0.0
2014-Aug-16 07:33S 29°40' E 031°10'0 0.0
2014-Aug-16 06:32S 29°40' E 031°10'0 0.1
2014-Aug-16 05:33S 29°40' E 031°11'0 0.1
2014-Aug-16 04:32S 29°40' E 031°11'0 0.1
2014-Aug-16 03:33S 29°40' E 031°11'0 0.4
2014-Aug-16 02:33S 29°41' E 031°10'8 7.5
2014-Aug-16 01:33S 29°48' E 031°11'25713.4
2014-Aug-15 06:23S 33°06' E 027°60'4314.3
2014-Aug-15 03:21S 33°32' E 027°18'1615.6
2014-Aug-15 02:21S 33°40' E 027°02'68 6.2
2014-Aug-14 15:29S 33°48' E 025°41'49 1.9
2014-Aug-13 13:18S 33°49' E 026°40'  

Dump ship's entire track history